createdAt,value
2016-12-09T00:00:44.779Z,27.6
2016-12-09T00:01:48.208Z,27.6
2016-12-09T00:02:48.143Z,27.6
2016-12-09T00:03:44.873Z,27.6
2016-12-09T00:04:44.932Z,27.6
2016-12-09T00:05:45.018Z,27.6
2016-12-09T00:06:48.281Z,27.6
2016-12-09T00:07:45.278Z,27.6
2016-12-09T00:08:45.332Z,27.6
2016-12-09T00:09:48.669Z,27.6
2016-12-09T00:10:45.312Z,27.6
2016-12-09T00:11:48.652Z,27.6
2016-12-09T00:12:45.531Z,27.6
2016-12-09T00:13:48.744Z,27.6
2016-12-09T00:14:45.641Z,27.6
2016-12-09T00:15:48.920Z,27.6
2016-12-09T00:16:49.074Z,27.6
2016-12-09T00:17:45.896Z,27.6
2016-12-09T00:18:45.893Z,27.6
2016-12-09T00:19:45.925Z,27.6
2016-12-09T00:20:45.888Z,27.6
2016-12-09T00:21:45.973Z,27.6
2016-12-09T00:22:49.430Z,27.7
2016-12-09T00:23:49.470Z,27.7
2016-12-09T00:24:49.518Z,27.7
2016-12-09T00:25:46.326Z,27.7
2016-12-09T00:26:49.516Z,27.7
2016-12-09T00:27:46.380Z,27.6
2016-12-09T00:28:49.598Z,27.6
2016-12-09T00:29:46.489Z,27.7
2016-12-09T00:30:49.724Z,27.7
2016-12-09T00:31:49.829Z,27.7
2016-12-09T00:32:46.484Z,27.6
2016-12-09T00:33:46.535Z,27.7
2016-12-09T00:34:46.732Z,27.7
2016-12-09T00:35:50.022Z,27.7
2016-12-09T00:36:46.892Z,27.7
2016-12-09T00:37:46.823Z,27.7
2016-12-09T00:38:50.276Z,27.7
2016-12-09T00:39:50.309Z,27.7
2016-12-09T00:40:50.423Z,27.6
2016-12-09T00:41:50.469Z,27.7
2016-12-09T00:42:50.405Z,27.7
2016-12-09T00:43:50.534Z,27.7
2016-12-09T00:44:50.554Z,27.7
2016-12-09T00:45:50.439Z,27.7
2016-12-09T00:46:50.649Z,27.7
2016-12-09T00:47:47.274Z,27.7
2016-12-09T00:48:50.695Z,27.6
2016-12-09T00:49:47.490Z,27.7
2016-12-09T00:50:47.398Z,27.7
2016-12-09T00:51:50.900Z,27.7
2016-12-09T00:52:47.625Z,27.7
2016-12-09T00:53:47.502Z,27.7
2016-12-09T00:54:50.945Z,27.7
2016-12-09T00:55:50.980Z,27.7
2016-12-09T00:56:51.044Z,27.7
2016-12-09T00:57:47.862Z,27.7
2016-12-09T00:58:51.037Z,27.7
2016-12-09T00:59:47.886Z,27.7
2016-12-09T01:00:47.891Z,27.7
2016-12-09T01:01:51.206Z,27.7
2016-12-09T01:02:48.157Z,27.6
2016-12-09T01:03:51.485Z,27.7
2016-12-09T01:04:51.520Z,27.7
2016-12-09T01:05:51.573Z,27.7
2016-12-09T01:06:48.303Z,27.7
2016-12-09T01:07:48.378Z,27.7
2016-12-09T01:08:51.595Z,27.7
2016-12-09T01:09:48.505Z,27.7
2016-12-09T01:10:48.552Z,27.7
2016-12-09T01:11:48.550Z,27.7
2016-12-09T01:12:51.864Z,27.7
2016-12-09T01:13:51.806Z,27.7
2016-12-09T01:14:51.907Z,27.7
2016-12-09T01:15:51.935Z,27.7
2016-12-09T01:16:48.643Z,27.7
2016-12-09T01:17:52.069Z,27.7
2016-12-09T01:18:52.040Z,27.7
2016-12-09T01:19:52.116Z,27.7
2016-12-09T01:20:52.172Z,27.7
2016-12-09T01:21:52.282Z,27.7
2016-12-09T01:22:52.292Z,27.7
2016-12-09T01:23:52.178Z,27.7
2016-12-09T01:24:52.268Z,27.7
2016-12-09T01:25:49.132Z,27.7
2016-12-09T01:26:52.319Z,27.7
2016-12-09T01:27:52.447Z,27.7
2016-12-09T01:28:52.430Z,27.7
2016-12-09T01:29:49.171Z,27.7
2016-12-09T01:30:52.651Z,27.7
2016-12-09T01:31:52.581Z,27.7
2016-12-09T01:32:52.830Z,27.7
2016-12-09T01:33:49.397Z,27.7
2016-12-09T01:34:49.612Z,27.7
2016-12-09T01:35:52.878Z,27.7
2016-12-09T01:36:49.760Z,27.7
2016-12-09T01:37:49.820Z,27.7
2016-12-09T01:38:53.158Z,27.7
2016-12-09T01:39:49.725Z,27.7
2016-12-09T01:40:53.162Z,27.7
2016-12-09T01:41:53.190Z,27.7
2016-12-09T01:42:49.992Z,27.7
2016-12-09T01:43:53.204Z,27.7
2016-12-09T01:44:53.240Z,27.7
2016-12-09T01:45:53.329Z,27.7
2016-12-09T01:46:53.393Z,27.7
2016-12-09T01:47:50.168Z,27.7
2016-12-09T01:48:53.511Z,27.7
2016-12-09T01:49:53.539Z,27.7
2016-12-09T01:50:50.377Z,27.7
2016-12-09T01:51:53.701Z,27.7
2016-12-09T01:52:53.761Z,27.7
2016-12-09T01:53:50.588Z,27.8
2016-12-09T01:54:50.855Z,27.8
2016-12-09T01:55:54.150Z,27.8
2016-12-09T01:56:54.266Z,27.8
2016-12-09T01:57:50.906Z,27.7
2016-12-09T01:58:54.261Z,27.7
2016-12-09T01:59:54.413Z,27.8
2016-12-09T02:00:54.348Z,27.8
2016-12-09T02:01:54.335Z,27.7
2016-12-09T02:02:54.398Z,27.8
2016-12-09T02:03:51.383Z,27.7
2016-12-09T02:04:54.555Z,27.8
2016-12-09T02:05:51.370Z,27.8
2016-12-09T02:06:54.686Z,27.8
2016-12-09T02:07:51.563Z,27.8
2016-12-09T02:08:51.482Z,27.8
2016-12-09T02:09:51.602Z,27.8
2016-12-09T02:10:51.614Z,27.8
2016-12-09T02:11:51.698Z,27.8
2016-12-09T02:12:51.719Z,27.8
2016-12-09T02:13:51.747Z,27.8
2016-12-09T02:14:55.093Z,27.8
2016-12-09T02:15:51.896Z,27.8
2016-12-09T02:16:51.992Z,27.8
2016-12-09T02:17:52.079Z,27.8
2016-12-09T02:18:52.123Z,27.8
2016-12-09T02:19:52.193Z,27.8
2016-12-09T02:20:55.399Z,27.8
2016-12-09T02:21:55.328Z,27.8
2016-12-09T02:22:55.430Z,27.8
2016-12-09T02:23:55.443Z,27.7
2016-12-09T02:24:52.209Z,27.8
2016-12-09T02:25:52.438Z,27.8
2016-12-09T02:26:52.504Z,27.8
2016-12-09T02:27:52.637Z,27.8
2016-12-09T02:28:52.531Z,27.7
2016-12-09T02:29:52.643Z,27.8
2016-12-09T02:30:55.834Z,27.8
2016-12-09T02:31:55.925Z,27.8
2016-12-09T02:32:52.600Z,27.8
2016-12-09T02:33:56.054Z,27.8
2016-12-09T02:34:56.012Z,27.8
2016-12-09T02:35:56.214Z,27.8
2016-12-09T02:36:52.957Z,27.8
2016-12-09T02:37:56.295Z,27.8
2016-12-09T02:38:56.411Z,27.8
2016-12-09T02:39:56.516Z,27.8
2016-12-09T02:40:53.112Z,27.8
2016-12-09T02:41:53.289Z,27.8
2016-12-09T02:42:53.250Z,27.8
2016-12-09T02:43:53.214Z,27.8
2016-12-09T02:44:53.456Z,27.8
2016-12-09T02:45:56.663Z,27.8
2016-12-09T02:46:53.419Z,27.8
2016-12-09T02:47:53.497Z,27.8
2016-12-09T02:48:56.846Z,27.8
2016-12-09T02:49:53.592Z,27.8
2016-12-09T02:50:56.890Z,27.8
2016-12-09T02:51:53.729Z,27.8
2016-12-09T02:52:56.910Z,27.8
2016-12-09T02:53:53.747Z,27.8
2016-12-09T02:54:53.825Z,27.8
2016-12-09T02:55:57.100Z,27.8
2016-12-09T02:56:57.119Z,27.8
2016-12-09T02:57:57.248Z,27.8
2016-12-09T02:58:57.402Z,27.8
2016-12-09T02:59:57.329Z,27.8
2016-12-09T03:00:57.525Z,27.8
2016-12-09T03:01:54.156Z,27.8
2016-12-09T03:02:57.478Z,27.8
2016-12-09T03:03:57.542Z,27.8
2016-12-09T03:04:57.658Z,27.8
2016-12-09T03:05:57.781Z,27.8
2016-12-09T03:06:54.576Z,27.8
2016-12-09T03:07:57.889Z,27.8
2016-12-09T03:08:54.678Z,27.8
2016-12-09T03:09:54.589Z,27.8
2016-12-09T03:10:57.864Z,27.8
2016-12-09T03:11:54.656Z,27.8
2016-12-09T03:12:54.857Z,27.8
2016-12-09T03:13:54.784Z,27.8
2016-12-09T03:14:58.154Z,27.8
2016-12-09T03:15:58.358Z,27.8
2016-12-09T03:16:55.060Z,27.8
2016-12-09T03:17:55.207Z,27.8
2016-12-09T03:18:55.140Z,27.8
2016-12-09T03:19:55.354Z,27.8
2016-12-09T03:20:55.399Z,27.8
2016-12-09T03:21:58.610Z,27.8
2016-12-09T03:22:58.766Z,27.8
2016-12-09T03:23:55.439Z,27.8
2016-12-09T03:24:55.492Z,27.8
2016-12-09T03:25:58.991Z,27.8
2016-12-09T03:26:55.638Z,27.8
2016-12-09T03:27:55.728Z,27.8
2016-12-09T03:28:59.088Z,27.8
2016-12-09T03:29:55.808Z,27.8
2016-12-09T03:30:59.147Z,27.8
2016-12-09T03:31:56.028Z,27.8
2016-12-09T03:32:59.285Z,27.8
2016-12-09T03:33:59.362Z,27.8
2016-12-09T03:34:59.391Z,27.8
2016-12-09T03:35:59.355Z,27.8
2016-12-09T03:36:56.276Z,27.8
2016-12-09T03:37:56.288Z,27.8
2016-12-09T03:38:56.323Z,27.8
2016-12-09T03:39:59.514Z,27.9
2016-12-09T03:40:56.320Z,27.9
2016-12-09T03:41:56.432Z,27.9
2016-12-09T03:42:56.326Z,27.9
2016-12-09T03:43:56.405Z,27.9
2016-12-09T03:44:56.413Z,27.9
2016-12-09T03:45:56.430Z,27.9
2016-12-09T03:46:59.689Z,27.9
2016-12-09T03:47:56.539Z,27.9
2016-12-09T03:48:56.503Z,27.9
2016-12-09T03:49:56.737Z,27.9
2016-12-09T03:50:56.804Z,27.9
2016-12-09T03:52:00.080Z,27.9
2016-12-09T03:53:00.108Z,27.9
2016-12-09T03:53:56.894Z,27.9
2016-12-09T03:54:56.797Z,27.9
2016-12-09T03:56:00.267Z,27.9
2016-12-09T03:57:00.305Z,27.9
2016-12-09T03:57:56.990Z,27.9
2016-12-09T03:58:57.219Z,27.9
2016-12-09T04:00:00.394Z,27.9
2016-12-09T04:00:57.198Z,27.9
2016-12-09T04:02:00.561Z,27.9
2016-12-09T04:02:57.394Z,27.9
2016-12-09T04:04:00.744Z,27.9
2016-12-09T04:04:57.423Z,27.9
2016-12-09T04:06:00.765Z,27.9
2016-12-09T04:06:57.452Z,27.9
2016-12-09T04:08:00.786Z,27.9
2016-12-09T04:09:00.914Z,27.9
2016-12-09T04:10:00.989Z,27.9
2016-12-09T04:10:57.560Z,27.9
2016-12-09T04:11:57.605Z,27.9
2016-12-09T04:13:00.976Z,27.9
2016-12-09T04:13:57.682Z,27.9
2016-12-09T04:14:57.892Z,27.9
2016-12-09T04:15:57.955Z,27.9
2016-12-09T04:17:01.149Z,27.8
2016-12-09T04:17:57.865Z,27.8
2016-12-09T04:18:57.997Z,27.8
2016-12-09T04:19:57.887Z,27.9
2016-12-09T04:21:01.220Z,27.9
2016-12-09T04:21:58.155Z,27.9
2016-12-09T04:22:58.067Z,27.9
2016-12-09T04:24:01.419Z,27.9
2016-12-09T04:25:01.504Z,27.9
2016-12-09T04:26:01.466Z,27.9
2016-12-09T04:27:01.569Z,27.9
2016-12-09T04:27:58.380Z,27.9
2016-12-09T04:28:58.312Z,27.9
2016-12-09T04:30:01.618Z,27.9
2016-12-09T04:31:01.681Z,27.9
2016-12-09T04:32:01.793Z,27.9
2016-12-09T04:32:58.505Z,27.9
2016-12-09T04:33:58.530Z,27.9
2016-12-09T04:35:01.919Z,27.9
2016-12-09T04:35:58.642Z,27.9
2016-12-09T04:36:58.552Z,27.9
2016-12-09T04:37:58.617Z,27.9
2016-12-09T04:39:02.084Z,27.9
2016-12-09T04:39:58.867Z,27.9
2016-12-09T04:40:58.763Z,27.9
2016-12-09T04:42:02.128Z,27.9
2016-12-09T04:43:02.218Z,27.9
2016-12-09T04:44:02.227Z,27.9
2016-12-09T04:44:59.052Z,27.9
2016-12-09T04:46:02.404Z,27.9
2016-12-09T04:46:59.134Z,27.9
2016-12-09T04:47:59.331Z,27.9
2016-12-09T04:48:59.394Z,27.9
2016-12-09T04:50:02.738Z,27.9
2016-12-09T04:50:59.427Z,27.9
2016-12-09T04:51:59.499Z,27.9
2016-12-09T04:53:02.869Z,27.9
2016-12-09T04:54:02.777Z,27.9
2016-12-09T04:54:59.715Z,27.8
2016-12-09T04:56:03.010Z,27.9
2016-12-09T04:56:59.882Z,27.9
2016-12-09T04:58:03.069Z,27.9
2016-12-09T04:59:03.062Z,27.9
2016-12-09T04:59:59.988Z,27.8
2016-12-09T05:01:00.026Z,27.9
2016-12-09T05:01:59.979Z,27.9
2016-12-09T05:03:00.195Z,27.9
2016-12-09T05:04:03.415Z,27.9
2016-12-09T05:05:00.277Z,27.9
2016-12-09T05:06:03.610Z,27.9
2016-12-09T05:07:00.258Z,27.9
2016-12-09T05:08:03.593Z,27.9
2016-12-09T05:09:03.729Z,27.9
2016-12-09T05:10:03.647Z,27.9
2016-12-09T05:11:03.841Z,27.9
2016-12-09T05:12:03.740Z,27.9
2016-12-09T05:13:00.465Z,27.9
2016-12-09T05:14:00.663Z,27.9
2016-12-09T05:15:00.695Z,27.9
2016-12-09T05:16:00.631Z,27.9
2016-12-09T05:17:04.045Z,27.9
2016-12-09T05:18:04.046Z,27.9
2016-12-09T05:19:04.169Z,27.9
2016-12-09T05:20:00.947Z,27.9
2016-12-09T05:21:00.835Z,27.9
2016-12-09T05:22:04.306Z,27.9
2016-12-09T05:23:04.276Z,27.9
2016-12-09T05:24:01.087Z,27.9
2016-12-09T05:25:01.246Z,27.9
2016-12-09T05:26:01.169Z,27.9
2016-12-09T05:27:04.549Z,27.9
2016-12-09T05:28:04.540Z,27.9
2016-12-09T05:29:01.479Z,27.9
2016-12-09T05:30:01.520Z,27.9
2016-12-09T05:31:04.815Z,27.9
2016-12-09T05:32:01.613Z,27.9
2016-12-09T05:33:04.796Z,27.9
2016-12-09T05:34:01.591Z,27.9
2016-12-09T05:35:05.072Z,27.9
2016-12-09T05:36:04.993Z,27.9
2016-12-09T05:37:05.190Z,28
2016-12-09T05:38:01.959Z,27.9
2016-12-09T05:39:05.155Z,27.9
2016-12-09T05:40:01.961Z,27.9
2016-12-09T05:41:05.330Z,27.9
2016-12-09T05:42:02.074Z,27.9
2016-12-09T05:43:05.444Z,28
2016-12-09T05:44:05.551Z,27.9
2016-12-09T05:45:05.593Z,27.9
2016-12-09T05:46:02.391Z,27.9
2016-12-09T05:47:05.557Z,28
2016-12-09T05:48:05.781Z,28
2016-12-09T05:49:05.730Z,27.9
2016-12-09T05:50:02.687Z,27.9
2016-12-09T05:51:02.722Z,27.9
2016-12-09T05:52:02.627Z,27.9
2016-12-09T05:53:02.691Z,27.9
2016-12-09T05:54:06.014Z,27.9
2016-12-09T05:55:06.018Z,27.9
2016-12-09T05:56:06.178Z,28
2016-12-09T05:57:06.259Z,27.9
2016-12-09T05:58:06.363Z,27.9
2016-12-09T05:59:06.250Z,27.9
2016-12-09T06:00:06.464Z,28
2016-12-09T06:01:03.093Z,28
2016-12-09T06:02:06.562Z,27.9
2016-12-09T06:03:06.463Z,27.9
2016-12-09T06:04:06.636Z,28
2016-12-09T06:05:03.454Z,28
2016-12-09T06:06:03.383Z,28
2016-12-09T06:07:03.565Z,28
2016-12-09T06:08:03.580Z,27.9
2016-12-09T06:09:06.761Z,28
2016-12-09T06:10:03.492Z,28
2016-12-09T06:11:06.831Z,28
2016-12-09T06:12:07.023Z,28
2016-12-09T06:13:03.812Z,28
2016-12-09T06:14:07.066Z,28
2016-12-09T06:15:07.201Z,28
2016-12-09T06:16:08.203Z,28
2016-12-09T06:17:03.933Z,28
2016-12-09T06:18:03.947Z,28
2016-12-09T06:19:04.091Z,28
2016-12-09T06:20:07.433Z,28
2016-12-09T06:21:07.374Z,28
2016-12-09T06:22:04.142Z,28
2016-12-09T06:23:04.291Z,28
2016-12-09T06:24:04.266Z,28
2016-12-09T06:25:07.605Z,28
2016-12-09T06:26:07.732Z,28
2016-12-09T06:27:04.529Z,28
2016-12-09T06:28:07.776Z,28
2016-12-09T06:29:07.908Z,28
2016-12-09T06:30:07.891Z,28
2016-12-09T06:31:07.981Z,28
2016-12-09T06:32:05.448Z,28
2016-12-09T06:33:04.764Z,28
2016-12-09T06:34:04.827Z,28
2016-12-09T06:35:08.375Z,28
2016-12-09T06:36:08.898Z,28
2016-12-09T06:37:05.243Z,28
2016-12-09T06:38:08.453Z,28
2016-12-09T06:39:05.259Z,28.1
2016-12-09T06:40:07.372Z,28
2016-12-09T06:41:05.626Z,28.1
2016-12-09T06:42:08.755Z,28.1
2016-12-09T06:43:08.697Z,28.1
2016-12-09T06:44:08.710Z,28.1
2016-12-09T06:45:05.632Z,28.1
2016-12-09T06:46:08.781Z,28.1
2016-12-09T06:47:05.734Z,28.1
2016-12-09T06:48:08.983Z,28.1
2016-12-09T06:49:09.058Z,28.1
2016-12-09T06:50:05.882Z,28.1
2016-12-09T06:51:09.131Z,28.1
2016-12-09T06:52:09.187Z,28.1
2016-12-09T06:53:06.036Z,28.1
2016-12-09T06:54:09.231Z,28.1
2016-12-09T06:55:09.182Z,28.1
2016-12-09T06:56:09.215Z,28.1
2016-12-09T06:57:06.079Z,28.1
2016-12-09T06:58:09.328Z,28.1
2016-12-09T06:59:09.342Z,28.2
2016-12-09T07:00:09.389Z,28.2
2016-12-09T07:01:06.330Z,28.2
2016-12-09T07:02:06.146Z,28.2
2016-12-09T07:03:09.528Z,28.2
2016-12-09T07:04:10.665Z,28.2
2016-12-09T07:05:09.767Z,28.3
2016-12-09T07:06:06.487Z,28.3
2016-12-09T07:07:09.804Z,28.2
2016-12-09T07:08:06.545Z,28.3
2016-12-09T07:09:06.683Z,28.3
2016-12-09T07:10:10.016Z,28.3
2016-12-09T07:11:12.863Z,28.3
2016-12-09T07:12:08.070Z,28.4
2016-12-09T07:13:06.784Z,28.4
2016-12-09T07:14:07.680Z,28.4
2016-12-09T07:15:07.085Z,28.4
2016-12-09T07:16:06.988Z,28.4
2016-12-09T07:17:07.066Z,28.5
2016-12-09T07:18:08.043Z,28.5
2016-12-09T07:19:07.327Z,28.5
2016-12-09T07:20:07.273Z,28.5
2016-12-09T07:21:10.515Z,28.5
2016-12-09T07:22:10.760Z,28.5
2016-12-09T07:23:09.784Z,28.5
2016-12-09T07:24:10.753Z,28.5
2016-12-09T07:25:08.887Z,28.6
2016-12-09T07:26:10.820Z,28.5
2016-12-09T07:27:07.564Z,28.6
2016-12-09T07:28:10.998Z,28.6
2016-12-09T07:29:11.119Z,28.6
2016-12-09T07:30:08.580Z,28.6
2016-12-09T07:31:07.880Z,28.6
2016-12-09T07:32:07.928Z,28.7
2016-12-09T07:33:08.054Z,28.7
2016-12-09T07:34:08.721Z,28.7
2016-12-09T07:35:12.122Z,28.7
2016-12-09T07:36:12.627Z,28.7
2016-12-09T07:37:08.227Z,28.7
2016-12-09T07:38:11.449Z,28.7
2016-12-09T07:39:08.405Z,28.8
2016-12-09T07:40:08.448Z,28.8
2016-12-09T07:41:11.551Z,28.8
2016-12-09T07:42:09.019Z,28.8
2016-12-09T07:43:09.122Z,28.8
2016-12-09T07:44:12.566Z,28.8
2016-12-09T07:45:13.567Z,28.8
2016-12-09T07:46:13.032Z,28.8
2016-12-09T07:47:08.716Z,28.9
2016-12-09T07:48:12.486Z,28.9
2016-12-09T07:49:09.145Z,28.9
2016-12-09T07:50:12.634Z,28.9
2016-12-09T07:51:13.324Z,28.8
2016-12-09T07:52:12.010Z,28.9
2016-12-09T07:53:12.136Z,28.9
2016-12-09T07:54:08.821Z,28.9
2016-12-09T07:55:08.847Z,28.9
2016-12-09T07:56:08.857Z,28.9
2016-12-09T07:57:12.390Z,29
2016-12-09T07:58:13.648Z,29
2016-12-09T07:59:09.250Z,29
2016-12-09T08:00:13.161Z,29
2016-12-09T08:01:09.246Z,29
2016-12-09T08:02:09.344Z,28.8
2016-12-09T08:03:10.182Z,28.7
2016-12-09T08:04:09.359Z,28.5
2016-12-09T08:05:09.644Z,28.3
2016-12-09T08:06:12.893Z,28.3
2016-12-09T08:07:09.679Z,28.1
2016-12-09T08:08:12.981Z,28
2016-12-09T08:09:13.077Z,27.9
2016-12-09T08:10:09.871Z,27.8
2016-12-09T08:11:09.909Z,27.7
2016-12-09T08:12:09.802Z,27.6
2016-12-09T08:13:13.898Z,27.5
2016-12-09T08:14:09.911Z,27.4
2016-12-09T08:15:10.797Z,27.3
2016-12-09T08:16:10.075Z,27.3
2016-12-09T08:17:13.303Z,27.2
2016-12-09T08:18:13.346Z,27.2
2016-12-09T08:19:10.133Z,27.1
2016-12-09T08:20:13.340Z,27.1
2016-12-09T08:21:14.071Z,27
2016-12-09T08:22:10.056Z,27
2016-12-09T08:23:13.359Z,26.9
2016-12-09T08:24:14.180Z,26.9
2016-12-09T08:25:10.163Z,26.8
2016-12-09T08:26:13.704Z,26.8
2016-12-09T08:27:14.389Z,26.7
2016-12-09T08:28:10.466Z,26.6
2016-12-09T08:29:11.847Z,26.6
2016-12-09T08:30:11.215Z,26.5
2016-12-09T08:31:10.701Z,26.5
2016-12-09T08:32:10.615Z,26.5
2016-12-09T08:33:13.902Z,26.4
2016-12-09T08:34:10.831Z,26.4
2016-12-09T08:35:14.603Z,26.4
2016-12-09T08:36:14.100Z,26.4
2016-12-09T08:37:14.294Z,26.4
2016-12-09T08:38:11.091Z,26.3
2016-12-09T08:39:14.749Z,26.3
2016-12-09T08:40:14.273Z,26.2
2016-12-09T08:41:10.981Z,26.2
2016-12-09T08:42:14.334Z,26.2
2016-12-09T08:43:11.039Z,26.2
2016-12-09T08:44:14.491Z,26.2
2016-12-09T08:45:11.380Z,26.2
2016-12-09T08:46:14.597Z,26.1
2016-12-09T08:47:15.075Z,26.1
2016-12-09T08:48:14.550Z,26
2016-12-09T08:49:14.583Z,26
2016-12-09T08:50:11.446Z,26
2016-12-09T08:51:14.816Z,25.9
2016-12-09T08:52:11.465Z,25.9
2016-12-09T08:53:17.217Z,25.9
2016-12-09T08:54:11.696Z,25.8
2016-12-09T08:55:14.893Z,25.8
2016-12-09T08:56:13.691Z,25.7
2016-12-09T08:57:15.189Z,25.8
2016-12-09T08:58:15.773Z,25.8
2016-12-09T08:59:16.229Z,25.7
2016-12-09T09:00:12.090Z,25.8
2016-12-09T09:01:15.484Z,25.8
2016-12-09T09:02:15.476Z,25.8
2016-12-09T09:03:12.947Z,25.7
2016-12-09T09:04:12.887Z,25.8
2016-12-09T09:05:14.002Z,25.7
2016-12-09T09:06:12.274Z,25.6
2016-12-09T09:07:12.440Z,25.6
2016-12-09T09:08:13.180Z,25.5
2016-12-09T09:09:15.800Z,25.5
2016-12-09T09:10:17.101Z,25.5
2016-12-09T09:11:12.587Z,25.5
2016-12-09T09:12:15.958Z,25.5
2016-12-09T09:13:16.070Z,25.6
2016-12-09T09:14:12.736Z,25.6
2016-12-09T09:15:12.858Z,25.6
2016-12-09T09:16:17.465Z,25.6
2016-12-09T09:17:19.259Z,25.6
2016-12-09T09:18:12.863Z,25.6
2016-12-09T09:19:17.573Z,25.6
2016-12-09T09:20:17.532Z,25.6
2016-12-09T09:21:18.360Z,25.6
2016-12-09T09:22:16.456Z,25.6
2016-12-09T09:23:16.014Z,25.5
2016-12-09T09:24:16.480Z,25.5
2016-12-09T09:25:13.910Z,25.5
2016-12-09T09:26:17.448Z,25.5
2016-12-09T09:27:14.139Z,25.5
2016-12-09T09:28:16.804Z,25.5
2016-12-09T09:29:19.000Z,25.5
2016-12-09T09:30:16.201Z,25.5
2016-12-09T09:31:17.601Z,25.5
2016-12-09T09:32:20.337Z,25.5
2016-12-09T09:33:19.600Z,25.5
2016-12-09T09:34:20.157Z,25.5
2016-12-09T09:35:17.292Z,25.4
2016-12-09T09:36:17.800Z,25.4
2016-12-09T09:37:14.752Z,25.4
2016-12-09T09:38:15.426Z,25.4
2016-12-09T09:39:16.117Z,25.4
2016-12-09T09:40:15.260Z,25.4
2016-12-09T09:41:16.486Z,25.4
2016-12-09T09:42:15.589Z,25.4
2016-12-09T09:43:15.460Z,25.4
2016-12-09T09:44:15.537Z,25.4
2016-12-09T09:45:18.032Z,25.4
2016-12-09T09:46:18.528Z,25.4
2016-12-09T09:47:15.018Z,25.4
2016-12-09T09:48:19.985Z,25.4
2016-12-09T09:49:20.623Z,25.4
2016-12-09T09:50:16.701Z,25.4
2016-12-09T09:51:19.560Z,25.3
2016-12-09T09:52:15.595Z,25.4
2016-12-09T09:53:20.238Z,25.4
2016-12-09T09:54:21.610Z,25.4
2016-12-09T09:55:21.748Z,25.4
2016-12-09T09:56:17.468Z,25.5
2016-12-09T09:57:18.946Z,25.6
2016-12-09T09:58:17.409Z,25.7
2016-12-09T09:59:22.797Z,25.8
2016-12-09T10:00:22.610Z,25.9
2016-12-09T10:01:20.548Z,26
2016-12-09T10:02:20.034Z,26.1
2016-12-09T10:03:22.442Z,26.1
2016-12-09T10:04:21.350Z,26.2
2016-12-09T10:05:19.125Z,26.3
2016-12-09T10:06:17.287Z,26.4
2016-12-09T10:07:15.543Z,26.4
2016-12-09T10:08:18.039Z,26.5
2016-12-09T10:09:18.257Z,26.6
2016-12-09T10:10:18.852Z,26.6
2016-12-09T10:11:16.332Z,26.6
2016-12-09T10:12:15.702Z,26.7
2016-12-09T10:13:15.690Z,26.8
2016-12-09T10:14:26.735Z,26.8
2016-12-09T10:15:20.475Z,26.9
2016-12-09T10:16:17.195Z,26.9
2016-12-09T10:17:19.168Z,27
2016-12-09T10:18:19.793Z,27
2016-12-09T10:19:19.191Z,27.1
2016-12-09T10:20:22.607Z,27.1
2016-12-09T10:21:24.940Z,27.2
2016-12-09T10:22:18.119Z,27.2
2016-12-09T10:23:17.976Z,27.3
2016-12-09T10:24:16.125Z,27.3
2016-12-09T10:25:18.076Z,27.3
2016-12-09T10:26:23.333Z,27.4
2016-12-09T10:27:18.715Z,27.4
2016-12-09T10:28:19.674Z,27.4
2016-12-09T10:29:21.340Z,27.5
2016-12-09T10:30:17.629Z,27.5
2016-12-09T10:31:20.492Z,27.6
2016-12-09T10:32:19.718Z,27.6
2016-12-09T10:33:20.775Z,27.6
2016-12-09T10:34:16.764Z,27.6
2016-12-09T10:35:17.147Z,27.6
2016-12-09T10:36:20.018Z,27.7
2016-12-09T10:37:18.638Z,27.7
2016-12-09T10:38:18.258Z,27.8
2016-12-09T10:39:16.688Z,27.8
2016-12-09T10:40:18.709Z,27.8
2016-12-09T10:41:20.548Z,27.8
2016-12-09T10:42:18.006Z,27.9
2016-12-09T10:43:22.669Z,27.9
2016-12-09T10:44:22.026Z,27.9
2016-12-09T10:45:28.075Z,28
2016-12-09T10:46:21.679Z,28
2016-12-09T10:47:27.378Z,28
2016-12-09T10:48:19.059Z,28
2016-12-09T10:49:17.914Z,28
2016-12-09T10:50:21.113Z,28
2016-12-09T10:51:21.114Z,28.1
2016-12-09T10:52:21.023Z,28.1
2016-12-09T10:53:25.324Z,28.1
2016-12-09T10:54:18.522Z,28.1
2016-12-09T10:55:22.077Z,28.1
2016-12-09T10:56:22.178Z,28.2
2016-12-09T10:57:26.257Z,28.2
2016-12-09T10:58:17.931Z,28.2
2016-12-09T10:59:23.088Z,28.2
2016-12-09T11:00:18.496Z,28.2
2016-12-09T11:01:20.833Z,28.3
2016-12-09T11:02:21.190Z,28.2
2016-12-09T11:03:20.211Z,28.2
2016-12-09T11:04:21.435Z,28.3
2016-12-09T11:05:19.492Z,28.3
2016-12-09T11:06:22.728Z,28.4
2016-12-09T11:07:23.447Z,28.3
2016-12-09T11:08:24.555Z,28.2
2016-12-09T11:09:33.170Z,28.1
2016-12-09T11:10:25.895Z,28
2016-12-09T11:11:23.760Z,27.8
2016-12-09T11:12:19.077Z,27.6
2016-12-09T11:13:20.821Z,27.4
2016-12-09T11:14:21.997Z,27.2
2016-12-09T11:15:22.730Z,27.1
2016-12-09T11:16:22.108Z,26.9
2016-12-09T11:17:20.471Z,26.8
2016-12-09T11:18:20.644Z,26.6
2016-12-09T11:19:19.309Z,26.6
2016-12-09T11:20:22.134Z,26.5
2016-12-09T11:21:19.543Z,26.5
2016-12-09T11:22:22.232Z,26.4
2016-12-09T11:23:25.173Z,26.4
2016-12-09T11:24:23.507Z,26.3
2016-12-09T11:25:21.862Z,26.3
2016-12-09T11:26:23.134Z,26.3
2016-12-09T11:27:22.976Z,26.2
2016-12-09T11:28:23.133Z,26.2
2016-12-09T11:29:19.222Z,26.1
2016-12-09T11:30:19.304Z,26.1
2016-12-09T11:31:23.325Z,26
2016-12-09T11:32:22.762Z,26
2016-12-09T11:33:19.498Z,26
2016-12-09T11:34:20.548Z,26
2016-12-09T11:35:20.116Z,26
2016-12-09T11:36:23.035Z,25.9
2016-12-09T11:37:22.959Z,25.9
2016-12-09T11:38:23.033Z,25.9
2016-12-09T11:39:24.157Z,25.9
2016-12-09T11:40:23.832Z,25.9
2016-12-09T11:41:23.123Z,25.9
2016-12-09T11:42:24.155Z,25.9
2016-12-09T11:43:23.258Z,25.9
2016-12-09T11:44:20.299Z,25.9
2016-12-09T11:45:20.528Z,25.9
2016-12-09T11:46:24.424Z,25.9
2016-12-09T11:47:20.024Z,25.9
2016-12-09T11:48:21.572Z,25.8
2016-12-09T11:49:23.909Z,25.8
2016-12-09T11:50:21.512Z,25.8
2016-12-09T11:51:20.153Z,25.8
2016-12-09T11:52:25.284Z,25.8
2016-12-09T11:53:26.840Z,25.7
2016-12-09T11:54:25.881Z,25.7
2016-12-09T11:55:24.389Z,25.7
2016-12-09T11:56:23.873Z,25.7
2016-12-09T11:57:21.944Z,25.7
2016-12-09T11:58:25.097Z,25.6
2016-12-09T11:59:21.272Z,25.6
2016-12-09T12:00:22.020Z,25.6
2016-12-09T12:01:26.779Z,25.6
2016-12-09T12:02:23.577Z,25.6
2016-12-09T12:03:24.730Z,25.6
2016-12-09T12:04:25.904Z,25.6
2016-12-09T12:05:24.124Z,25.6
2016-12-09T12:06:21.058Z,25.6
2016-12-09T12:07:22.741Z,25.6
2016-12-09T12:08:27.627Z,25.6
2016-12-09T12:09:24.998Z,25.6
2016-12-09T12:10:21.752Z,25.6
2016-12-09T12:11:24.976Z,25.6
2016-12-09T12:12:21.342Z,25.7
2016-12-09T12:13:25.283Z,25.7
2016-12-09T12:14:23.176Z,25.7
2016-12-09T12:15:25.200Z,25.7
2016-12-09T12:16:21.909Z,25.7
2016-12-09T12:17:21.988Z,25.7
2016-12-09T12:18:26.180Z,25.7
2016-12-09T12:19:23.582Z,25.7
2016-12-09T12:20:25.569Z,25.7
2016-12-09T12:21:25.802Z,25.7
2016-12-09T12:22:25.143Z,25.8
2016-12-09T12:23:25.070Z,25.7
2016-12-09T12:24:25.095Z,25.7
2016-12-09T12:25:21.938Z,25.7
2016-12-09T12:26:25.158Z,25.7
2016-12-09T12:27:23.086Z,25.8
2016-12-09T12:28:26.725Z,25.8
2016-12-09T12:29:25.382Z,25.8
2016-12-09T12:30:25.228Z,25.8
2016-12-09T12:31:22.086Z,25.8
2016-12-09T12:32:26.689Z,25.8
2016-12-09T12:33:22.918Z,25.9
2016-12-09T12:34:23.600Z,25.9
2016-12-09T12:35:29.209Z,25.9
2016-12-09T12:36:26.845Z,25.8
2016-12-09T12:37:24.096Z,25.8
2016-12-09T12:38:26.913Z,25.8
2016-12-09T12:39:29.587Z,25.9
2016-12-09T12:40:29.705Z,25.9
2016-12-09T12:41:25.164Z,26
2016-12-09T12:42:24.967Z,26.2
2016-12-09T12:43:25.074Z,26.3
2016-12-09T12:44:30.560Z,26.4
2016-12-09T12:45:30.484Z,26.5
2016-12-09T12:46:33.660Z,26.6
2016-12-09T12:47:31.200Z,26.7
2016-12-09T12:48:27.285Z,26.8
2016-12-09T12:49:26.788Z,26.9
2016-12-09T12:50:26.543Z,26.9
2016-12-09T12:51:27.483Z,27
2016-12-09T12:52:23.000Z,27.1
2016-12-09T12:53:26.415Z,27.2
2016-12-09T12:54:23.183Z,27.2
2016-12-09T12:55:23.229Z,27.3
2016-12-09T12:56:26.463Z,27.3
2016-12-09T12:57:27.194Z,27.4
2016-12-09T12:58:24.019Z,27.5
2016-12-09T12:59:26.540Z,27.5
2016-12-09T13:00:24.116Z,27.5
2016-12-09T13:01:25.406Z,27.5
2016-12-09T13:02:26.772Z,27.6
2016-12-09T13:03:25.048Z,27.7
2016-12-09T13:04:25.025Z,27.7
2016-12-09T13:05:26.841Z,27.7
2016-12-09T13:06:27.042Z,27.7
2016-12-09T13:07:24.487Z,27.8
2016-12-09T13:08:28.695Z,27.8
2016-12-09T13:09:28.493Z,27.8
2016-12-09T13:10:28.315Z,27.9
2016-12-09T13:11:23.948Z,27.9
2016-12-09T13:12:25.263Z,27.9
2016-12-09T13:13:23.927Z,27.9
2016-12-09T13:14:24.737Z,28
2016-12-09T13:15:27.347Z,28
2016-12-09T13:16:28.101Z,28
2016-12-09T13:17:27.359Z,28
2016-12-09T13:18:27.538Z,28.1
2016-12-09T13:19:24.275Z,28.1
2016-12-09T13:20:28.132Z,28.1
2016-12-09T13:21:24.516Z,28.2
2016-12-09T13:22:27.621Z,28.2
2016-12-09T13:23:28.336Z,28.2
2016-12-09T13:24:24.590Z,28.2